Time;durP1;ratioP1;P1;durP2;ratioP2;P2;SDS_P1;SDS_P2;PMS_P1;PMS_P2;Temp;Humidity;BMP_temperature;BMP_pressure;BME280_temperature;BME280_humidity;BME280_pressure;Samples;Min_cycle;Max_cycle;Signal;HPM_P1;HPM_P2
2023/09/01 00:01:12;;;;;;;6.85;4.43;;;15.10;99.90;;;;;;8271235;28;20033;-78
2023/09/01 00:05:13;;;;;;;7.90;4.63;;;15.30;99.90;;;;;;8285791;28;20087;-78
2023/09/01 00:09:13;;;;;;;5.47;4.82;;;15.10;99.90;;;;;;8275994;28;20058;-78
2023/09/01 00:13:14;;;;;;;6.00;3.90;;;15.00;99.90;;;;;;8266895;28;20052;-78
2023/09/01 00:17:14;;;;;;;7.97;4.18;;;15.10;99.90;;;;;;8276973;28;20161;-78
2023/09/01 00:21:16;;;;;;;7.45;4.22;;;15.10;99.90;;;;;;8267187;28;20025;-78
2023/09/01 00:25:16;;;;;;;5.63;3.83;;;15.10;99.90;;;;;;8261194;28;20023;-78
2023/09/01 00:29:17;;;;;;;6.22;2.80;;;15.30;99.90;;;;;;8270773;28;20084;-78
2023/09/01 00:33:17;;;;;;;10.95;3.40;;;15.30;99.90;;;;;;8255184;28;20438;-78
2023/09/01 00:37:18;;;;;;;4.93;2.78;;;15.30;99.90;;;;;;8285310;28;20033;-78
2023/09/01 00:41:18;;;;;;;6.72;3.05;;;15.50;99.90;;;;;;8262544;28;20049;-78
2023/09/01 00:45:19;;;;;;;6.50;2.88;;;15.50;99.90;;;;;;8267863;28;20050;-78
2023/09/01 00:49:20;;;;;;;4.88;3.03;;;15.60;99.90;;;;;;8272487;28;20030;-78
2023/09/01 00:53:21;;;;;;;4.53;3.00;;;15.60;99.90;;;;;;8280423;28;20038;-78
2023/09/01 00:57:22;;;;;;;4.43;3.05;;;15.50;99.90;;;;;;8266368;28;20092;-78
2023/09/01 01:01:22;;;;;;;4.90;2.67;;;15.60;99.90;;;;;;8262781;28;20558;-78
2023/09/01 01:05:31;;;;;;;6.80;2.90;;;15.80;99.90;;;;;;8285476;28;20026;-78
2023/09/01 01:10:00;;;;;;;5.57;3.28;;;15.80;99.90;;;;;;8275217;28;20026;-79
2023/09/01 01:14:09;;;;;;;3.05;2.70;;;15.70;99.90;;;;;;8250966;28;20418;-78
2023/09/01 01:18:13;;;;;;;6.07;3.13;;;15.80;99.90;;;;;;8269192;28;20054;-77
2023/09/01 01:22:14;;;;;;;3.53;2.70;;;16.00;99.90;;;;;;8277205;28;20034;-78
2023/09/01 01:26:15;;;;;;;4.28;2.92;;;15.90;99.90;;;;;;8279827;28;20498;-78
2023/09/01 01:30:15;;;;;;;3.85;2.70;;;16.10;99.90;;;;;;8259168;28;20057;-78
2023/09/01 01:34:35;;;;;;;5.00;3.28;;;16.20;99.90;;;;;;8258350;28;20027;-78
2023/09/01 01:38:40;;;;;;;4.55;2.78;;;16.30;99.90;;;;;;8270087;28;20545;-79
2023/09/01 01:42:46;;;;;;;3.90;2.20;;;16.30;99.90;;;;;;8285208;28;20029;-78
2023/09/01 01:46:47;;;;;;;7.63;2.53;;;16.30;99.90;;;;;;8281856;28;20021;-78
2023/09/01 01:50:47;;;;;;;4.55;2.60;;;16.40;99.90;;;;;;8272215;28;20073;-78
2023/09/01 01:54:48;;;;;;;3.63;2.40;;;16.40;99.90;;;;;;8270277;28;20336;-78
2023/09/01 01:58:48;;;;;;;3.22;2.22;;;16.50;99.90;;;;;;8259680;28;20030;-79
2023/09/01 02:02:49;;;;;;;2.67;2.22;;;16.40;99.90;;;;;;8260023;28;20109;-78
2023/09/01 02:06:49;;;;;;;4.63;2.60;;;16.50;99.90;;;;;;8272431;28;20490;-78
2023/09/01 02:10:50;;;;;;;5.72;2.33;;;16.50;99.90;;;;;;8284506;28;20022;-78
2023/09/01 02:14:50;;;;;;;3.45;2.22;;;16.60;99.90;;;;;;8276502;28;20030;-78
2023/09/01 02:18:51;;;;;;;3.03;2.40;;;16.60;99.90;;;;;;8273765;28;20022;-78
2023/09/01 02:22:53;;;;;;;3.95;2.35;;;16.60;99.90;;;;;;8284621;28;20398;-79
2023/09/01 02:26:54;;;;;;;3.83;2.40;;;16.60;99.90;;;;;;8264889;28;20030;-78
2023/09/01 02:30:54;;;;;;;3.40;2.20;;;16.60;99.90;;;;;;8260123;28;20037;-78
2023/09/01 02:34:55;;;;;;;5.57;2.33;;;16.50;99.90;;;;;;8276504;28;20030;-78
2023/09/01 02:38:56;;;;;;;4.88;2.42;;;16.60;99.90;;;;;;8272901;28;20044;-77
2023/09/01 02:42:56;;;;;;;3.78;2.50;;;16.50;99.90;;;;;;8260760;28;20022;-78
2023/09/01 02:46:57;;;;;;;3.63;2.45;;;16.60;99.90;;;;;;8257809;28;20026;-77
2023/09/01 02:51:00;;;;;;;3.78;2.13;;;16.60;99.90;;;;;;8278785;28;20057;-79
2023/09/01 02:55:01;;;;;;;4.35;2.20;;;16.60;99.90;;;;;;8259617;28;20105;-78
2023/09/01 02:59:01;;;;;;;3.25;2.30;;;16.60;99.90;;;;;;8253766;28;20026;-77
2023/09/01 03:03:02;;;;;;;3.80;2.53;;;16.60;99.90;;;;;;8261071;28;20026;-79
2023/09/01 03:07:03;;;;;;;3.95;2.22;;;16.60;99.90;;;;;;8279523;28;20034;-79
2023/09/01 03:11:04;;;;;;;4.45;2.78;;;16.50;99.90;;;;;;8272222;28;20125;-78
2023/09/01 03:15:07;;;;;;;3.63;2.47;;;16.40;99.90;;;;;;8297201;28;20030;-78
2023/09/01 03:19:07;;;;;;;4.85;2.60;;;16.40;99.90;;;;;;8265474;28;20084;-78
2023/09/01 03:23:08;;;;;;;6.55;2.75;;;16.50;99.90;;;;;;8270987;28;20092;-78
2023/09/01 03:27:08;;;;;;;5.00;2.55;;;16.60;99.90;;;;;;8260165;28;20019;-78
2023/09/01 03:31:10;;;;;;;4.28;2.42;;;16.40;99.90;;;;;;8267564;28;20387;-78
2023/09/01 03:35:11;;;;;;;3.65;2.45;;;16.30;99.90;;;;;;8266539;28;20022;-77
2023/09/01 03:39:11;;;;;;;4.03;2.53;;;16.30;99.90;;;;;;8262771;28;20041;-77
2023/09/01 03:43:12;;;;;;;6.95;2.67;;;16.20;99.90;;;;;;8273716;28;20483;-78
2023/09/01 03:47:13;;;;;;;4.93;2.22;;;16.20;99.90;;;;;;8260364;28;20076;-78
2023/09/01 03:51:17;;;;;;;3.92;2.47;;;16.10;99.90;;;;;;8274437;28;20027;-78
2023/09/01 03:55:17;;;;;;;4.40;2.10;;;15.90;99.90;;;;;;8283725;28;20486;-78
2023/09/01 03:59:19;;;;;;;4.03;2.50;;;15.80;99.90;;;;;;8290998;28;20030;-78
2023/09/01 04:03:19;;;;;;;3.28;2.40;;;15.60;99.90;;;;;;8265245;28;20117;-79
2023/09/01 04:07:20;;;;;;;7.00;3.08;;;15.40;99.90;;;;;;8275651;28;20029;-78
2023/09/01 04:11:20;;;;;;;3.50;2.42;;;15.30;99.90;;;;;;8272121;28;20120;-78
2023/09/01 04:15:21;;;;;;;4.05;2.15;;;15.20;99.90;;;;;;8268961;28;20102;-78
2023/09/01 04:19:21;;;;;;;4.18;2.53;;;15.20;99.90;;;;;;8260374;28;20028;-79
2023/09/01 04:23:22;;;;;;;4.78;2.58;;;15.10;99.90;;;;;;8268765;28;20034;-78
2023/09/01 04:27:23;;;;;;;4.60;2.75;;;14.90;99.90;;;;;;8255373;28;20398;-78
2023/09/01 04:31:28;;;;;;;4.28;2.47;;;14.90;99.90;;;;;;8265099;28;20125;-78
2023/09/01 04:35:29;;;;;;;3.63;2.45;;;15.00;99.90;;;;;;8245855;28;20061;-78
2023/09/01 04:39:29;;;;;;;4.63;2.40;;;15.00;99.90;;;;;;8253266;28;20507;-78
2023/09/01 04:43:30;;;;;;;3.92;2.40;;;15.10;99.90;;;;;;8269125;28;20026;-79
2023/09/01 04:47:30;;;;;;;4.55;2.05;;;15.10;99.90;;;;;;8264993;28;20030;-78
2023/09/01 04:51:31;;;;;;;4.00;2.10;;;15.10;99.90;;;;;;8279992;28;20552;-78
2023/09/01 04:55:31;;;;;;;4.20;2.33;;;15.00;99.90;;;;;;8276404;28;20112;-78
2023/09/01 04:59:32;;;;;;;3.75;2.33;;;15.20;99.90;;;;;;8280569;28;20446;-78
2023/09/01 05:03:32;;;;;;;3.35;2.58;;;15.30;99.90;;;;;;8261400;28;20101;-78
2023/09/01 05:07:33;;;;;;;5.55;2.55;;;15.40;99.90;;;;;;8273700;28;20041;-78
2023/09/01 05:11:33;;;;;;;2.78;2.20;;;15.60;99.90;;;;;;8285343;28;20030;-78
2023/09/01 05:15:35;;;;;;;3.63;2.33;;;15.50;99.90;;;;;;8265328;28;20030;-78
2023/09/01 05:19:35;;;;;;;5.60;2.08;;;15.50;99.90;;;;;;8293124;28;20029;-78
2023/09/01 05:23:36;;;;;;;4.55;2.38;;;15.60;99.90;;;;;;8258688;28;20029;-78
2023/09/01 05:27:36;;;;;;;4.55;2.17;;;15.60;99.90;;;;;;8258820;28;20037;-79
2023/09/01 05:31:37;;;;;;;2.95;1.90;;;15.80;99.90;;;;;;8257548;28;20032;-79
2023/09/01 05:35:37;;;;;;;3.78;2.22;;;15.90;99.90;;;;;;8277425;28;20032;-79
2023/09/01 05:39:39;;;;;;;2.40;2.10;;;16.00;99.90;;;;;;8261668;28;20122;-78
2023/09/01 05:43:40;;;;;;;4.20;1.92;;;16.00;99.90;;;;;;8267282;28;20048;-79
2023/09/01 05:47:40;;;;;;;3.03;2.20;;;16.30;99.90;;;;;;8283127;28;20033;-79
2023/09/01 05:51:41;;;;;;;3.58;1.63;;;16.20;99.90;;;;;;8276856;28;20499;-77
2023/09/01 05:55:41;;;;;;;5.90;1.90;;;16.40;99.90;;;;;;8270919;28;20096;-78
2023/09/01 05:59:42;;;;;;;3.00;2.00;;;16.40;99.90;;;;;;8252187;28;20030;-79
2023/09/01 06:03:42;;;;;;;3.60;1.80;;;16.50;99.90;;;;;;8268620;28;20053;-78
2023/09/01 06:07:43;;;;;;;3.42;1.85;;;16.60;99.90;;;;;;8280395;28;20076;-78
2023/09/01 06:11:44;;;;;;;7.53;2.03;;;16.60;99.90;;;;;;8258542;28;20026;-77
2023/09/01 06:15:44;;;;;;;3.05;1.58;;;16.80;99.90;;;;;;8261474;28;20030;-78
2023/09/01 06:19:45;;;;;;;4.18;1.90;;;16.90;99.90;;;;;;8284084;28;20018;-78
2023/09/01 06:23:47;;;;;;;2.33;1.67;;;17.00;99.90;;;;;;8281306;28;20030;-78
2023/09/01 06:27:47;;;;;;;3.03;1.80;;;17.00;99.90;;;;;;8252362;28;20084;-78
2023/09/01 06:31:48;;;;;;;4.93;1.83;;;17.00;99.90;;;;;;8274043;28;20022;-78
2023/09/01 06:35:48;;;;;;;4.72;1.90;;;17.10;99.90;;;;;;8267144;28;20044;-78
2023/09/01 06:39:49;;;;;;;1.98;1.75;;;17.10;99.90;;;;;;8254775;28;20533;-78
2023/09/01 06:43:49;;;;;;;5.60;1.88;;;17.10;99.90;;;;;;8268641;28;20065;-78
2023/09/01 06:47:55;;;;;;;5.53;2.45;;;17.20;99.90;;;;;;8256750;28;20499;-78
2023/09/01 06:51:58;;;;;;;2.63;1.73;;;17.30;99.90;;;;;;8270709;28;20080;-78
2023/09/01 06:55:58;;;;;;;2.85;1.83;;;17.60;99.90;;;;;;8254014;28;20026;-78
2023/09/01 06:59:59;;;;;;;3.33;1.92;;;17.80;99.90;;;;;;8263309;28;20121;-78
2023/09/01 07:03:59;;;;;;;3.00;1.80;;;17.90;99.90;;;;;;8262365;28;20503;-78
2023/09/01 07:08:00;;;;;;;2.58;1.60;;;18.10;99.90;;;;;;8262790;28;20037;-79
2023/09/01 07:12:01;;;;;;;3.10;2.13;;;18.40;99.90;;;;;;8255112;28;20461;-79
2023/09/01 07:16:02;;;;;;;3.83;1.90;;;18.40;99.90;;;;;;8246040;28;20027;-79
2023/09/01 07:20:05;;;;;;;3.15;1.67;;;18.60;99.90;;;;;;8266503;28;20674;-79
2023/09/01 07:24:06;;;;;;;3.83;1.85;;;18.60;99.90;;;;;;8262389;28;20037;-79
2023/09/01 07:28:06;;;;;;;3.25;1.88;;;18.80;99.90;;;;;;8246863;28;20026;-79
2023/09/01 07:32:07;;;;;;;3.85;2.20;;;18.60;99.90;;;;;;8245593;28;20062;-78
2023/09/01 07:36:11;;;;;;;2.78;2.10;;;18.80;99.90;;;;;;8238616;28;20035;-79
2023/09/01 07:40:13;;;;;;;4.13;2.17;;;18.80;99.90;;;;;;8259315;28;20042;-78
2023/09/01 07:44:17;;;;;;;4.65;2.22;;;18.80;99.90;;;;;;8262645;28;20014;-79
2023/09/01 07:48:18;;;;;;;2.65;2.00;;;19.00;99.90;;;;;;8248080;28;20081;-79
2023/09/01 07:52:18;;;;;;;2.90;2.00;;;19.70;99.90;;;;;;8262477;28;20405;-79
2023/09/01 07:56:19;;;;;;;4.97;2.22;;;20.40;99.90;;;;;;8266058;28;20042;-78
2023/09/01 08:00:20;;;;;;;5.38;2.30;;;20.70;99.90;;;;;;8248143;28;20044;-78
2023/09/01 08:04:20;;;;;;;2.83;2.03;;;21.20;99.90;;;;;;8265152;28;20049;-78
2023/09/01 08:08:21;;;;;;;3.35;2.33;;;21.40;99.90;;;;;;8256018;28;20026;-78
2023/09/01 08:12:21;;;;;;;3.22;2.10;;;21.30;99.90;;;;;;8259335;28;20023;-78
2023/09/01 08:16:22;;;;;;;2.47;1.83;;;21.60;99.90;;;;;;8271145;28;20038;-79
2023/09/01 08:20:23;;;;;;;6.25;1.75;;;21.90;99.90;;;;;;8256525;28;20080;-78
2023/09/01 08:24:23;;;;;;;5.32;1.90;;;22.00;99.90;;;;;;8272600;28;20022;-79
2023/09/01 08:28:24;;;;;;;5.07;2.00;;;22.00;99.90;;;;;;8262199;28;20411;-79
2023/09/01 08:32:24;;;;;;;3.15;1.88;;;21.90;99.90;;;;;;8277017;28;20045;-79
2023/09/01 08:36:26;;;;;;;4.85;2.33;;;21.90;99.90;;;;;;8259456;28;20026;-79
2023/09/01 08:40:27;;;;;;;4.47;2.75;;;22.10;99.90;;;;;;8271073;28;20033;-79
2023/09/01 08:44:29;;;;;;;5.05;2.22;;;22.20;99.90;;;;;;8261926;28;20081;-79
2023/09/01 08:48:31;;;;;;;7.05;5.25;;;22.30;99.90;;;;;;8268565;28;20041;-79
2023/09/01 08:52:34;;;;;;;5.00;2.90;;;21.90;99.90;;;;;;8261680;28;20121;-78
2023/09/01 08:56:35;;;;;;;3.28;2.00;;;21.90;99.90;;;;;;8244305;28;20714;-78
2023/09/01 09:00:36;;;;;;;3.70;1.80;;;22.20;99.90;;;;;;8261009;28;20026;-78
2023/09/01 09:04:36;;;;;;;8.32;3.08;;;22.40;99.90;;;;;;8283954;28;20018;-78
2023/09/01 09:08:37;;;;;;;7.63;2.47;;;22.50;99.90;;;;;;8279731;28;20027;-78
2023/09/01 09:12:39;;;;;;;3.30;1.90;;;22.60;99.90;;;;;;8282735;28;20026;-79
2023/09/01 09:16:51;;;;;;;2.45;1.80;;;22.50;99.90;;;;;;8274127;28;20018;-79
2023/09/01 09:20:51;;;;;;;3.97;1.80;;;22.20;99.90;;;;;;8263413;28;20034;-79
2023/09/01 09:24:52;;;;;;;3.33;1.73;;;22.30;99.90;;;;;;8256765;28;20479;-79
2023/09/01 09:28:53;;;;;;;2.92;1.77;;;22.40;99.90;;;;;;8276062;28;20030;-78
2023/09/01 09:33:03;;;;;;;4.53;1.60;;;22.80;99.90;;;;;;8256339;28;20041;-79
2023/09/01 09:37:16;;;;;;;2.40;1.67;;;23.10;99.90;;;;;;8257230;28;20105;-78
2023/09/01 09:41:16;;;;;;;2.75;1.50;;;23.10;99.90;;;;;;8263420;28;20032;-79
2023/09/01 09:45:26;;;;;;;4.03;1.52;;;23.20;99.90;;;;;;8281292;28;20026;-78
2023/09/01 09:49:31;;;;;;;3.67;1.92;;;23.10;99.90;;;;;;8281907;28;20017;-79
2023/09/01 09:53:33;;;;;;;2.78;1.60;;;23.10;99.90;;;;;;8276085;28;20034;-79
2023/09/01 09:57:35;;;;;;;3.35;1.70;;;23.30;99.90;;;;;;8259977;28;20030;-78
2023/09/01 10:01:39;;;;;;;3.00;1.80;;;23.80;99.90;;;;;;8261673;28;20093;-79
2023/09/01 10:05:41;;;;;;;2.63;1.45;;;24.10;99.90;;;;;;8280057;28;20090;-78
2023/09/01 10:09:44;;;;;;;4.05;1.63;;;24.70;99.90;;;;;;8271440;28;20068;-79
2023/09/01 10:13:45;;;;;;;1.95;1.40;;;24.70;99.90;;;;;;8260077;28;20032;-79
2023/09/01 10:17:48;;;;;;;3.67;1.70;;;24.70;99.90;;;;;;8269500;28;20034;-79
2023/09/01 10:21:50;;;;;;;5.03;1.40;;;24.80;99.90;;;;;;8272630;28;20014;-79
2023/09/01 10:26:25;;;;;;;4.78;1.67;;;25.30;99.90;;;;;;8279473;28;20033;-79
2023/09/01 10:30:31;;;;;;;2.90;1.45;;;26.00;99.90;;;;;;8280071;28;20026;-79
2023/09/01 10:34:32;;;;;;;2.38;1.23;;;27.50;99.90;;;;;;8271010;28;20403;-79
2023/09/01 10:38:37;;;;;;;2.75;1.30;;;27.20;99.90;;;;;;8280278;28;20030;-79
2023/09/01 10:42:48;;;;;;;2.17;1.42;;;25.90;99.90;;;;;;8233224;28;20037;-79
2023/09/01 10:46:49;;;;;;;1.77;1.20;;;25.00;99.90;;;;;;8242699;28;20487;-78
2023/09/01 10:51:19;;;;;;;2.53;1.27;;;25.30;99.90;;;;;;8236096;28;20030;-78
2023/09/01 10:55:19;;;;;;;2.47;1.23;;;25.40;99.90;;;;;;8263681;28;20521;-79
2023/09/01 10:59:36;;;;;;;2.42;1.20;;;25.70;99.90;;;;;;8266756;28;20092;-78
2023/09/01 11:03:39;;;;;;;4.63;1.27;;;26.90;99.90;;;;;;8265329;28;20042;-79
2023/09/01 11:08:09;;;;;;;1.30;1.15;;;27.70;99.90;;;;;;8259485;28;20030;-79
2023/09/01 11:12:12;;;;;;;1.37;1.03;;;27.60;99.90;;;;;;8280263;28;20492;-78
2023/09/01 11:16:13;;;;;;;2.58;1.15;;;28.40;99.90;;;;;;8252308;28;20490;-79
2023/09/01 11:20:18;;;;;;;3.70;1.10;;;28.60;99.90;;;;;;8273080;28;20105;-79
2023/09/01 11:24:22;;;;;;;2.75;1.38;;;27.60;99.90;;;;;;8241235;28;20022;-79
2023/09/01 11:28:28;;;;;;;1.88;1.30;;;26.70;99.90;;;;;;8264315;28;20030;-79
2023/09/01 11:32:28;;;;;;;1.67;1.17;;;26.40;99.90;;;;;;8256431;28;20081;-79
2023/09/01 11:36:29;;;;;;;1.33;1.02;;;26.10;99.90;;;;;;8265374;28;20069;-79
2023/09/01 11:40:32;;;;;;;4.60;1.52;;;25.30;99.90;;;;;;8269178;28;20046;-79
2023/09/01 11:44:32;;;;;;;3.05;2.05;;;25.30;99.90;;;;;;8268522;28;20623;-79
2023/09/01 11:48:34;;;;;;;1.90;1.42;;;26.80;99.90;;;;;;8277955;28;20031;-78
2023/09/01 11:52:53;;;;;;;5.65;1.52;;;27.10;99.90;;;;;;8273786;28;20022;-79
2023/09/01 11:56:54;;;;;;;1.90;1.33;;;27.90;99.90;;;;;;8257834;28;20538;-78
2023/09/01 12:00:55;;;;;;;4.05;1.60;;;28.30;99.90;;;;;;8268531;28;20057;-79
2023/09/01 12:04:55;;;;;;;2.47;1.10;;;27.80;99.90;;;;;;8279145;28;20058;-78
2023/09/01 12:09:14;;;;;;;2.10;1.17;;;27.00;99.90;;;;;;8285857;28;20087;-79
2023/09/01 12:13:15;;;;;;;2.58;1.20;;;26.40;99.90;;;;;;8266097;28;20430;-79
2023/09/01 12:17:18;;;;;;;3.83;1.27;;;26.20;99.90;;;;;;8286845;28;20143;-79
2023/09/01 12:21:18;;;;;;;2.90;1.05;;;26.50;99.90;;;;;;8266031;28;20029;-78
2023/09/01 12:25:19;;;;;;;2.50;1.13;;;26.50;99.90;;;;;;8260662;28;20115;-79
2023/09/01 12:29:19;;;;;;;1.98;1.20;;;26.00;99.90;;;;;;8270834;28;20406;-79
2023/09/01 12:33:20;;;;;;;2.25;1.05;;;27.20;99.90;;;;;;8266284;28;20506;-79
2023/09/01 12:37:21;;;;;;;3.38;1.38;;;28.00;99.90;;;;;;8275799;28;20029;-79
2023/09/01 12:41:21;;;;;;;2.53;1.23;;;29.30;99.90;;;;;;8270889;28;20029;-79
2023/09/01 12:45:22;;;;;;;2.50;1.20;;;30.60;99.90;;;;;;8280829;28;20455;-79
2023/09/01 12:49:23;;;;;;;4.53;1.30;;;31.50;98.40;;;;;;8272661;28;20022;-78
2023/09/01 12:53:23;;;;;;;7.45;1.40;;;30.60;98.10;;;;;;8276533;28;20128;-80
2023/09/01 12:57:24;;;;;;;1.73;1.10;;;30.20;97.70;;;;;;8256494;28;20384;-79
2023/09/01 13:01:24;;;;;;;2.22;1.00;;;31.40;96.30;;;;;;8275174;28;20121;-78
2023/09/01 13:05:25;;;;;;;2.95;1.40;;;31.80;92.20;;;;;;8272565;28;20519;-79
2023/09/01 13:09:25;;;;;;;1.85;1.10;;;31.70;93.40;;;;;;8258721;28;20417;-79
2023/09/01 13:13:26;;;;;;;2.65;1.30;;;29.70;93.10;;;;;;8251727;28;20026;-79
2023/09/01 13:17:26;;;;;;;1.83;1.25;;;28.30;98.10;;;;;;8273950;28;20380;-78
2023/09/01 13:21:27;;;;;;;1.60;1.20;;;27.90;97.70;;;;;;8259115;28;20050;-80
2023/09/01 13:25:27;;;;;;;1.77;1.23;;;29.70;96.90;;;;;;8266071;28;20157;-80
2023/09/01 13:29:28;;;;;;;2.08;1.30;;;31.60;92.90;;;;;;8286805;28;20494;-79
2023/09/01 13:33:28;;;;;;;2.53;1.42;;;32.70;93.10;;;;;;8256968;28;20154;-76
2023/09/01 13:37:29;;;;;;;2.72;1.50;;;34.00;88.40;;;;;;8271705;28;20525;-78
2023/09/01 13:41:29;;;;;;;2.78;1.20;;;31.80;89.80;;;;;;8254520;28;20033;-76
2023/09/01 13:45:30;;;;;;;1.95;1.30;;;31.60;90.70;;;;;;8257584;28;20088;-77
2023/09/01 13:49:30;;;;;;;2.03;1.00;;;33.20;82.70;;;;;;8269165;28;20041;-77
2023/09/01 13:53:31;;;;;;;2.65;1.70;;;34.10;81.50;;;;;;8281876;28;20036;-77
2023/09/01 13:57:31;;;;;;;1.85;1.33;;;33.50;78.70;;;;;;8280540;28;20026;-77
2023/09/01 14:01:32;;;;;;;2.60;1.27;;;30.80;91.20;;;;;;8251207;28;20034;-78
2023/09/01 14:05:33;;;;;;;2.30;1.30;;;32.80;87.20;;;;;;8245432;28;20080;-78
2023/09/01 14:09:33;;;;;;;2.22;1.50;;;34.90;82.00;;;;;;8272231;28;20513;-77
2023/09/01 14:13:34;;;;;;;2.70;1.48;;;34.90;77.90;;;;;;8272607;28;20026;-78
2023/09/01 14:17:34;;;;;;;1.77;1.33;;;34.10;79.90;;;;;;8263647;28;20479;-77
2023/09/01 14:21:35;;;;;;;2.78;1.30;;;35.10;75.00;;;;;;8272657;28;20022;-77
2023/09/01 14:25:35;;;;;;;2.38;1.50;;;35.00;73.60;;;;;;8262402;28;20033;-78
2023/09/01 14:29:38;;;;;;;3.25;1.38;;;35.60;73.90;;;;;;8272926;28;20050;-78
2023/09/01 14:33:40;;;;;;;1.95;1.52;;;35.90;68.80;;;;;;8276669;28;20088;-77
2023/09/01 14:37:41;;;;;;;1.40;1.10;;;35.20;71.10;;;;;;8248041;28;20038;-78
2023/09/01 14:41:41;;;;;;;2.13;1.23;;;35.90;67.00;;;;;;8256111;28;20041;-77
2023/09/01 14:45:42;;;;;;;2.45;1.35;;;35.60;68.60;;;;;;8261853;28;20026;-78
2023/09/01 14:49:43;;;;;;;1.83;1.30;;;36.60;68.50;;;;;;8245711;28;20526;-77
2023/09/01 14:53:44;;;;;;;2.70;1.58;;;34.50;67.80;;;;;;8277031;28;20029;-79
2023/09/01 14:57:45;;;;;;;2.25;1.15;;;32.40;76.50;;;;;;8273077;28;20022;-87
2023/09/01 15:01:45;;;;;;;3.22;1.55;;;31.10;81.50;;;;;;8285081;28;20026;-85
2023/09/01 15:05:49;;;;;;;2.20;1.55;;;29.70;84.50;;;;;;8275511;28;20076;-78
2023/09/01 15:09:50;;;;;;;5.65;2.13;;;28.50;89.10;;;;;;8258039;28;20034;-78
2023/09/01 15:13:52;;;;;;;2.33;1.35;;;27.50;91.40;;;;;;8259706;28;20490;-77
2023/09/01 15:17:53;;;;;;;2.55;1.30;;;27.10;92.40;;;;;;8282795;28;20057;-78
2023/09/01 15:21:54;;;;;;;2.85;1.50;;;26.50;92.70;;;;;;8262182;28;20035;-78
2023/09/01 15:25:55;;;;;;;5.10;1.80;;;26.50;94.80;;;;;;8267509;28;20165;-78
2023/09/01 15:29:56;;;;;;;17.02;1.95;;;28.30;91.90;;;;;;8277087;28;20038;-78
2023/09/01 15:33:59;;;;;;;2.33;1.20;;;29.30;91.10;;;;;;8258168;28;20048;-78
2023/09/01 15:38:00;;;;;;;3.00;1.50;;;29.10;89.00;;;;;;8252876;28;20525;-78
2023/09/01 15:42:01;;;;;;;2.72;1.40;;;27.50;92.10;;;;;;8269712;28;20030;-78
2023/09/01 15:46:06;;;;;;;2.90;1.40;;;26.70;94.10;;;;;;8238365;28;20040;-77
2023/09/01 15:50:07;;;;;;;2.95;1.17;;;26.30;96.90;;;;;;8267991;28;20026;-78
2023/09/01 15:54:08;;;;;;;2.58;1.38;;;26.20;96.00;;;;;;8264922;28;20526;-77
2023/09/01 15:58:09;;;;;;;1.95;1.40;;;25.50;97.10;;;;;;8265991;28;20092;-78
2023/09/01 16:02:09;;;;;;;3.90;1.63;;;27.80;94.40;;;;;;8269998;28;20049;-78
2023/09/01 16:06:10;;;;;;;3.70;1.52;;;28.30;91.70;;;;;;8268037;28;20053;-78
2023/09/01 16:10:11;;;;;;;3.22;1.20;;;26.40;94.40;;;;;;8310990;22;20066;-85
2023/09/01 16:14:11;;;;;;;2.10;1.52;;;25.10;97.10;;;;;;8315862;28;20026;-84
2023/09/01 16:18:12;;;;;;;3.20;1.50;;;24.50;98.40;;;;;;8312127;28;20083;-85
2023/09/01 16:22:13;;;;;;;4.35;1.60;;;23.90;99.70;;;;;;8307565;28;20041;-84
2023/09/01 16:26:13;;;;;;;2.60;1.63;;;23.70;99.90;;;;;;8313911;28;20021;-85
2023/09/01 16:30:14;;;;;;;1.75;1.33;;;23.40;99.90;;;;;;8309651;28;20099;-84
2023/09/01 16:34:14;;;;;;;2.33;1.27;;;23.10;99.90;;;;;;8312513;28;20048;-85
2023/09/01 16:38:15;;;;;;;3.42;1.80;;;22.80;99.90;;;;;;8315128;28;20033;-85
2023/09/01 16:42:16;;;;;;;3.45;1.60;;;22.50;99.90;;;;;;8314757;28;20032;-85
2023/09/01 16:46:16;;;;;;;4.78;1.67;;;22.40;99.90;;;;;;8311366;28;20033;-85
2023/09/01 16:50:17;;;;;;;2.83;1.50;;;22.20;99.90;;;;;;8315500;28;20033;-85
2023/09/01 16:54:17;;;;;;;2.00;1.20;;;22.00;99.90;;;;;;8312179;28;20021;-85
2023/09/01 16:58:18;;;;;;;3.65;1.50;;;21.80;99.90;;;;;;8309599;28;20034;-85
2023/09/01 17:02:19;;;;;;;2.47;1.50;;;21.70;99.90;;;;;;8311107;28;20402;-86
2023/09/01 17:06:19;;;;;;;2.53;1.55;;;21.40;99.90;;;;;;8304994;28;20100;-85
2023/09/01 17:10:20;;;;;;;2.35;1.45;;;21.20;99.90;;;;;;8313484;28;20037;-85
2023/09/01 17:14:24;;;;;;;3.03;1.70;;;21.00;99.90;;;;;;8311643;28;20029;-85
2023/09/01 17:18:24;;;;;;;2.30;1.50;;;20.80;99.90;;;;;;8311944;28;20025;-85
2023/09/01 17:22:25;;;;;;;2.70;1.92;;;20.60;99.90;;;;;;8308600;28;20024;-85
2023/09/01 17:26:25;;;;;;;3.13;1.40;;;20.40;99.90;;;;;;8311659;28;20067;-85
2023/09/01 17:30:26;;;;;;;3.33;2.10;;;20.20;99.90;;;;;;8312230;28;20438;-85
2023/09/01 17:34:26;;;;;;;3.60;1.63;;;20.10;99.90;;;;;;8305510;28;20026;-85
2023/09/01 17:38:27;;;;;;;2.92;1.60;;;19.90;99.90;;;;;;8310749;28;20103;-85
2023/09/01 17:42:28;;;;;;;5.93;1.77;;;19.70;99.90;;;;;;8313823;28;20029;-85
2023/09/01 17:46:29;;;;;;;2.83;1.85;;;19.50;99.90;;;;;;8309495;28;20659;-85
2023/09/01 17:50:30;;;;;;;2.38;1.63;;;19.30;99.90;;;;;;8310475;28;20033;-86
2023/09/01 17:54:30;;;;;;;2.63;1.90;;;19.10;99.90;;;;;;8304205;28;20390;-85
2023/09/01 17:58:31;;;;;;;7.68;2.15;;;18.90;99.90;;;;;;8303723;28;20383;-85
2023/09/01 18:02:36;;;;;;;4.15;1.90;;;18.70;99.90;;;;;;8305200;28;20025;-85
2023/09/01 18:06:37;;;;;;;3.22;2.10;;;18.50;99.90;;;;;;8313041;28;20478;-84
2023/09/01 18:10:38;;;;;;;3.83;2.28;;;18.10;99.90;;;;;;8311769;28;20033;-87
2023/09/01 18:14:39;;;;;;;2.70;2.03;;;18.00;99.90;;;;;;8308117;28;20032;-87
2023/09/01 18:18:40;;;;;;;3.28;2.13;;;17.80;99.90;;;;;;8308238;28;20026;-85
2023/09/01 18:22:44;;;;;;;6.70;2.50;;;17.70;99.90;;;;;;8311999;28;20437;-85
2023/09/01 18:26:44;;;;;;;2.80;2.10;;;17.60;99.90;;;;;;8302223;28;20503;-85
2023/09/01 18:30:47;;;;;;;4.97;2.20;;;17.50;99.90;;;;;;8305287;28;20026;-85
2023/09/01 18:34:47;;;;;;;2.65;1.85;;;17.30;99.90;;;;;;8303203;28;20087;-85
2023/09/01 18:38:50;;;;;;;2.72;1.90;;;17.20;99.90;;;;;;8315960;28;20060;-90
2023/09/01 18:42:54;;;;;;;3.88;1.85;;;17.00;99.90;;;;;;8332405;28;20124;-88
2023/09/01 18:46:54;;;;;;;2.60;2.00;;;16.70;99.90;;;;;;8312740;28;20028;-88
2023/09/01 18:51:03;;;;;;;4.50;2.47;;;16.50;99.90;;;;;;8308074;28;20026;-87
2023/09/01 18:55:04;;;;;;;7.55;2.90;;;16.40;99.90;;;;;;8303425;28;20618;-88
2023/09/01 18:59:05;;;;;;;6.03;3.80;;;16.30;99.90;;;;;;8308965;28;20036;-87
2023/09/01 19:03:06;;;;;;;9.27;3.92;;;16.10;99.90;;;;;;8303987;28;20045;-86
2023/09/01 19:07:06;;;;;;;5.20;3.20;;;16.10;99.90;;;;;;8321553;28;20025;-86
2023/09/01 19:11:09;;;;;;;7.47;2.80;;;16.20;99.90;;;;;;8307643;28;20146;-86
2023/09/01 19:15:10;;;;;;;3.75;2.80;;;16.20;99.90;;;;;;8322432;28;20120;-86
2023/09/01 19:19:13;;;;;;;4.18;2.60;;;16.20;99.90;;;;;;8326735;28;20517;-86
2023/09/01 19:23:29;;;;;;;3.65;2.40;;;16.10;99.90;;;;;;8323947;28;20064;-86
2023/09/01 19:27:32;;;;;;;3.97;2.40;;;16.00;99.90;;;;;;8341983;28;20109;-87
2023/09/01 19:31:33;;;;;;;3.50;2.60;;;15.80;99.90;;;;;;8329046;28;20017;-86
2023/09/01 19:35:34;;;;;;;6.40;2.85;;;16.10;99.90;;;;;;8328942;28;20036;-86
2023/09/01 19:39:36;;;;;;;6.53;3.05;;;15.80;99.90;;;;;;8325703;28;20125;-85
2023/09/01 19:43:39;;;;;;;7.35;2.85;;;15.50;99.90;;;;;;8321395;28;20033;-86
2023/09/01 19:47:39;;;;;;;3.33;2.90;;;15.30;99.90;;;;;;8347924;28;20094;-86
2023/09/01 19:51:43;;;;;;;4.68;3.05;;;15.10;99.90;;;;;;8351447;28;21529;-86
2023/09/01 19:55:44;;;;;;;5.13;3.13;;;14.90;99.90;;;;;;8343066;28;20056;-86
2023/09/01 19:59:44;;;;;;;5.55;3.40;;;14.80;99.90;;;;;;8328124;28;20034;-86
2023/09/01 20:03:45;;;;;;;4.05;3.30;;;14.70;99.90;;;;;;8344861;28;20021;-86
2023/09/01 20:07:46;;;;;;;4.28;3.78;;;14.80;99.90;;;;;;8329194;28;20017;-85
2023/09/01 20:11:47;;;;;;;7.03;3.47;;;14.90;99.90;;;;;;8326723;28;20026;-84
2023/09/01 20:15:48;;;;;;;5.28;3.70;;;14.90;99.90;;;;;;8330608;28;20028;-85
2023/09/01 20:19:49;;;;;;;6.68;4.35;;;14.90;99.90;;;;;;8328625;28;20446;-86
2023/09/01 20:23:49;;;;;;;5.45;4.10;;;14.70;99.90;;;;;;8324867;28;20056;-85
2023/09/01 20:27:53;;;;;;;7.20;4.13;;;14.70;99.90;;;;;;8328866;28;20396;-86
2023/09/01 20:31:53;;;;;;;7.15;3.45;;;14.60;99.90;;;;;;8332815;28;20479;-86
2023/09/01 20:35:54;;;;;;;4.75;4.10;;;14.60;99.90;;;;;;8332900;28;20028;-86
2023/09/01 20:39:55;;;;;;;4.85;3.92;;;14.50;99.90;;;;;;8323801;28;20030;-86
2023/09/01 20:43:55;;;;;;;6.90;3.83;;;14.50;99.90;;;;;;8330138;28;20121;-86
2023/09/01 20:47:56;;;;;;;7.85;4.15;;;14.40;99.90;;;;;;8346498;28;20366;-86
2023/09/01 20:51:57;;;;;;;6.13;4.00;;;14.30;99.90;;;;;;8330251;28;20032;-86
2023/09/01 20:56:02;;;;;;;7.35;3.70;;;14.40;99.90;;;;;;8333282;28;20040;-86
2023/09/01 21:00:04;;;;;;;5.72;3.83;;;14.40;99.90;;;;;;8326760;28;20025;-86